Logo AVAMET
Benvolgut visitant, si us plau, ingressa Recuperar contrasenya

Sella poble

Dades diàries. Acumulats / Últims 30 dies disponibles

Data Temperatura (°C) Humitat rel. (%) Pressió rel. (hPa) Vent (km/h) Precipitació
Mínima Mitjana Màxima Amplitud
tèrmica
Mínima Mitjana Màxima Mínima Mitjana Màxima Predom. Mitjana Ràfega
màxima
Total
(mm)
Índex-n
Mínima Mitjana Màxima Mínima Mitjana Màxima n
0 a 1
P0 max
mm 5'
Dades mensuals acumulades fins l'últim dia disponible
10/2019 11,9 16,1 19,5 19,5 15,2 23,7 28,5 16,6 10 69 98 1.005 1.015 1.022   7,8 78,1 61,8
Dades anuals acumulades fins l'últim dia disponible
2019 1,9 14,2 26,3 18,1 9,7 22,6 36,6 34,7 2 61 98 993 1.016 1.031   7,5 78,1 484,3
Últims 30 dies disponibles
22-10-2019 11,9     13,5     15,2 3,3 74 90 98 1.005 1.008 1.016 OSO 8,8 78,1 45,5
21-10-2019 12,4     14,5     15,7 3,3 49 81 98 1.013 1.015 1.017 W 5,9 20,4 14,3
20-10-2019 14,8     17,2     20,5 5,7 47 72 97 1.006 1.009 1.014 WNW 7,3 33,3 0,0
19-10-2019 16,7     19,5     24,3 7,6 23 60 98 1.007 1.010 1.013 NW 9,0 22,2 0,0
18-10-2019 17,7     20,9     24,8 7,1 41 58 69 1.014 1.016 1.018 WNW 6,6 20,4 0,0
17-10-2019 14,0     18,9     24,1 10,1 21 48 79 1.015 1.016 1.018 NW 8,9 24,1 0,0
16-10-2019 13,0     16,7     21,5 8,5 29 46 86 1.016 1.018 1.020 NW 7,7 18,5 0,0
15-10-2019 13,2     16,6     20,7 7,5 10 43 69 1.013 1.016 1.020 WNW 12,3 48,1 0,0
14-10-2019 17,1     20,1     24,3 7,2 48 72 98 1.011 1.014 1.017 NW 7,7 37,0 2,0
13-10-2019 17,3     20,9     26,1 8,8 49 73 97 1.015 1.017 1.018 NW 9,8 22,2 0,0
12-10-2019 17,4     21,6     28,0 10,6 42 63 92 1.016 1.018 1.020 NW 9,7 22,2 0,0
11-10-2019 16,0     19,7     24,2 8,2 68 89 97 1.018 1.020 1.022 WNW 8,2 20,4 0,0
10-10-2019 16,2     20,0     23,3 7,1 75 91 98 1.018 1.020 1.022 WNW 5,8 20,4 0,0
09-10-2019 16,3     19,8     24,5 8,2 75 90 98 1.016 1.017 1.020 NW 5,5 16,6 0,0
08-10-2019 16,3     19,2     23,0 6,7 81 91 98 1.018 1.019 1.021 NNW 6,0 16,6 0,0
07-10-2019 17,5     20,9     25,0 7,5 40 77 94 1.014 1.016 1.019 NW 5,6 20,4 0,0
06-10-2019 16,8     20,6     25,3 8,5 63 81 98 1.016 1.017 1.019 NW 6,3 18,5 0,0
05-10-2019 19,2     21,8     26,2 7,0 44 66 97 1.014 1.015 1.018 NW 7,6 22,2 0,0
04-10-2019 16,8     21,0     26,2 9,4 34 61 93 1.014 1.016 1.018 NNW 8,6 24,1 0,0
03-10-2019 15,7     19,5     24,0 8,3 56 72 93 1.015 1.016 1.018 NW 7,5 20,4 0,0
02-10-2019 17,3     22,9     26,2 8,9 10 42 87 1.010 1.013 1.017 WNW 9,0 44,4 0,0
01-10-2019 19,5     23,7     28,5 9,0 13 63 91 1.010 1.012 1.016 NW 6,8 25,9 0,0
30-09-2019 19,6     23,7     27,3 7,7 38 67 98 1.015 1.016 1.018 O 9,9 25,2 0,0
29-09-2019 17,6     22,1     26,9 9,3 30 62 97 1.016 1.018 1.020 NW 9,1 22,2 0,0
28-09-2019 18,9     22,2     26,3 7,4 66 78 97 1.018 1.019 1.022 NW 8,1 22,2 0,0
27-09-2019 18,3     22,1     26,8 8,5 57 77 98 1.017 1.018 1.020 NW 7,9 22,2 0,0
26-09-2019 17,9     21,4     26,6 8,7 70 86 95 1.017 1.019 1.020 NW 8,2 18,5 0,0
25-09-2019 19,8     24,6     28,3 8,5 28 59 97 1.013 1.015 1.018 WNW 8,1 37,0 0,0
24-09-2019 17,6     23,0     29,4 11,8 42 69 94 1.015 1.017 1.019 NNW 8,2 22,2 0,0
23-09-2019 18,4     22,0     24,5 6,1 50 72 98 1.016 1.018 1.020 W 5,4 25,9 0,0
Últims 13 mesos disponibles
09/2019 13,9 18,7 21,6 22,2 21,1 26,0 30,5 16,6 45 80 93 1.010 1.017 1.021 NW 7,2 50,0 142,7
08/2019 18,2 21,4 26,3 25,3 26,5 30,1 36,2 18,0 21 66 86 1.012 1.016 1.020 NW 7,0 29,6 11,6
07/2019 19,0 21,3 24,9 26,0 26,6 31,0 36,6 17,6 17 52 91 1.007 1.014 1.020 NW 7,1 35,1 4,7
06/2019 12,6 17,4 25,5 22,1 21,7 27,1 35,9 23,3 14 51 88 1.008 1.014 1.021 NW 7,2 37,4 0,5
05/2019 8,4 13,1 19,5 17,1 15,4 21,5 27,4 19,0 39 68 89 1.004 1.014 1.023 NW 6,3 52,2 11,7
04/2019 7,0 10,3 13,5 13,6 12,6 17,5 26,2 19,2 27 71 94 999 1.011 1.023 NW 6,5 61,0 210,7
03/2019 5,6 9,4 14,6 13,5 11,4 18,0 25,3 19,7 11 48 90 1.009 1.020 1.027 NW 8,1 51,8 30,6
02/2019 2,4 7,4 13,5 11,3 9,9 16,5 22,3 19,9 13 48 80 995 1.021 1.029 NW 9,3 66,6 0,5
01/2019 1,9 7,0 11,1 10,2 9,7 14,3 18,8 16,9 26 55 86 1.002 1.016 1.027 NNW 9,1 68,5 9,5
12/2018 5,9 9,3 15,1 13,0 12,7 17,5 22,7 16,8 26 62 85 1.007 1.022 1.028 NNW 7,6 62,9 47,8
11/2018 7,8 10,8 14,8 13,6 12,6 17,3 21,8 14,0 30 69 93 999 1.013 1.020 NW 6,9 61,0 88,8
10/2018 6,4 13,8 17,5 17,3 12,7 21,7 26,3 19,9 37 71 87 998 1.013 1.024 7,2 59,2 83,2
09/2018 13,8 19,1 21,9 22,5 23,9 27,1 29,5 15,7 60 78 90 1.013 1.019 1.026 6,3 35,1 72,2
Tots els anys disponibles
2018 1,5 13,4 25,6 17,0 6,9 21,3 33,7 32,2 26 70 93 998 1.017 1.028 NW 6,9 70,3 555,7
2017 0,2 13,4 26,9 17,2 5,7 21,7 37,0 36,8 32 50 68 1.010 1.015 1.021 7,3 64,8 559,8
2016 2,7 13,8 26,9 17,3 8,3 21,5 37,1 34,4 7,0 66,6 475,5
Temperatura (°C)
Humitat relativa (%)
Velocitat del vent i ràfega màxima (km/h)
Direcció del vent (°)
Pressió (hPa)
Precipitació (mm)
Nota sobre les dades: s'avisa a l'usuari de la provisionalitat i no oficialitat d'aquestes dades
Logo AVAMET blanc
Web allotjada a Sollutia
Llicència de Creative CommonsLa web d'AVAMET i els seus continguts estan subjectes a una llicència de
Reconeixement - No Comercial - Compartir igual
Últimes estacions: Sueca - Centre (Inforatge), Xàbia - La Plana (Soci), Banyeres de Mariola - Molí Sol (Soci), Villena - Villa Ventín (Soci), Benissa - Convent (Soci), Xàbia Fontanella (Soci), Castielfabib (Soci) --- Properes estacions: Villena - Serra de Salines (Soci) - - -